Time;durP1;ratioP1;P1;durP2;ratioP2;P2;SDS_P1;SDS_P2;PMS_P1;PMS_P2;Temp;Humidity;BMP_temperature;BMP_pressure;BME280_temperature;BME280_humidity;BME280_pressure;Samples;Min_cycle;Max_cycle;Signal;HPM_P1;HPM_P2
2022/10/06 00:01:46;;;;;;;;;1.25;0.00;;;;;16.11;61.92;101942.06;4971929;28;46168;-77
2022/10/06 00:04:11;;;;;;;;;1.75;1.00;;;;;16.11;62.24;101950.00;4972078;28;45665;-76
2022/10/06 00:06:37;;;;;;;;;0.25;0.00;;;;;16.10;62.22;101956.25;4972048;28;45749;-76
2022/10/06 00:09:02;;;;;;;;;1.00;0.00;;;;;16.11;62.12;101972.00;4971463;28;46101;-77
2022/10/06 00:11:28;;;;;;;;;0.00;0.00;;;;;16.09;62.21;101962.47;4971891;28;45636;-77
2022/10/06 00:13:53;;;;;;;;;1.00;1.00;;;;;16.06;62.33;101965.34;4971897;28;45549;-77
2022/10/06 00:16:23;;;;;;;;;1.50;0.00;;;;;16.07;62.63;101967.06;4971874;28;45660;-77
2022/10/06 00:18:49;;;;;;;;;1.50;0.00;;;;;16.05;62.44;101971.59;4971711;28;45763;-76
2022/10/06 00:21:14;;;;;;;;;1.75;0.00;;;;;16.06;62.24;101984.72;4971627;28;45843;-77
2022/10/06 00:27:02;;;;;;;;;0.00;0.00;;;;;15.99;62.44;101986.09;4971148;28;45535;-76
2022/10/06 00:29:27;;;;;;;;;2.00;0.25;;;;;16.00;62.51;101998.38;4972157;28;45743;-77
2022/10/06 00:31:54;;;;;;;;;0.50;0.00;;;;;15.99;62.25;102003.75;4974283;28;46391;-76
2022/10/06 00:34:19;;;;;;;;;0.00;0.00;;;;;15.94;62.52;102004.09;4974549;28;45680;-76
2022/10/06 00:36:44;;;;;;;;;1.00;0.00;;;;;15.88;62.72;102008.00;4974522;28;45620;-78
2022/10/06 00:39:10;;;;;;;;;2.00;1.00;;;;;15.86;62.77;102017.88;4974226;28;45498;-77
2022/10/06 00:41:35;;;;;;;;;1.25;0.00;;;;;15.82;62.89;102010.22;4974303;28;46533;-77
2022/10/06 00:44:00;;;;;;;;;0.75;0.25;;;;;15.83;63.10;102020.72;4974446;28;45637;-77
2022/10/06 00:46:34;;;;;;;;;1.00;1.00;;;;;15.83;62.81;102022.50;4974252;28;45686;-77
2022/10/06 00:49:32;;;;;;;;;2.50;1.00;;;;;15.85;62.78;102023.25;4974047;28;46536;-77
2022/10/06 00:52:06;;;;;;;;;0.75;0.00;;;;;15.85;62.62;102024.09;4932994;28;46303;-77
2022/10/06 00:54:33;;;;;;;;;1.50;1.00;;;;;15.82;62.43;102020.81;4933329;28;45622;-78
2022/10/06 00:56:59;;;;;;;;;1.50;0.00;;;;;15.77;62.89;102018.50;4933193;28;45584;-76
2022/10/06 00:59:25;;;;;;;;;0.75;0.50;;;;;15.72;62.53;102030.34;4933047;28;46506;-77
2022/10/06 01:01:59;;;;;;;;;1.00;0.00;;;;;15.67;62.37;102025.38;4932930;28;45728;-77
2022/10/06 01:04:29;;;;;;;;;2.00;0.00;;;;;15.63;62.57;102026.56;4933279;28;45582;-76
2022/10/06 01:06:57;;;;;;;;;1.25;0.00;;;;;15.58;62.54;102027.81;4933368;28;45739;-77
2022/10/06 01:09:23;;;;;;;;;2.00;1.00;;;;;15.58;62.63;102026.03;4932896;28;46924;-77
2022/10/06 01:11:52;;;;;;;;;1.00;0.50;;;;;15.53;62.69;102028.16;4933226;28;45857;-77
2022/10/06 01:14:21;;;;;;;;;2.50;1.00;;;;;15.49;62.83;102029.28;4933165;28;45797;-77
2022/10/06 01:16:52;;;;;;;;;2.50;0.75;;;;;15.49;62.63;102043.31;4933203;28;45798;-76
2022/10/06 01:19:43;;;;;;;;;1.75;0.00;;;;;15.46;63.00;102040.88;4932871;28;46367;-76
2022/10/06 01:22:14;;;;;;;;;3.00;0.75;;;;;15.44;62.65;102041.94;4932860;28;47477;-77
2022/10/06 01:24:39;;;;;;;;;1.00;0.00;;;;;15.42;63.29;102049.13;4933130;28;45701;-77
2022/10/06 01:27:07;;;;;;;;;0.75;0.75;;;;;15.37;63.18;102052.09;4932753;28;45643;-77
2022/10/06 01:29:34;;;;;;;;;1.25;0.50;;;;;15.35;62.97;102048.69;4973447;28;46489;-77
2022/10/06 01:32:00;;;;;;;;;0.50;0.00;;;;;15.34;62.77;102052.28;4973676;28;46282;-77
2022/10/06 01:34:27;;;;;;;;;0.50;0.00;;;;;15.31;62.81;102059.56;4973660;28;45515;-76
2022/10/06 01:36:52;;;;;;;;;1.50;0.00;;;;;15.28;62.68;102060.63;4973514;28;45726;-77
2022/10/06 01:42:39;;;;;;;;;7.00;0.25;;;;;15.21;62.56;102067.28;4973275;28;45821;-77
2022/10/06 01:45:06;;;;;;;;;2.50;1.00;;;;;15.19;63.00;102065.69;4973467;28;45523;-77
2022/10/06 01:47:32;;;;;;;;;1.75;0.25;;;;;15.17;62.91;102055.22;4972139;28;45489;-77
2022/10/06 01:49:58;;;;;;;;;3.00;1.00;;;;;15.15;62.65;102064.19;4973386;28;46991;-77
2022/10/06 01:52:25;;;;;;;;;1.50;0.00;;;;;15.12;62.64;102059.94;4973371;28;46179;-77
2022/10/06 01:54:51;;;;;;;;;3.00;0.00;;;;;15.09;62.57;102058.38;4973590;28;45676;-78
2022/10/06 01:57:17;;;;;;;;;1.00;0.00;;;;;15.06;62.53;102063.84;4973441;28;45693;-76
2022/10/06 01:59:42;;;;;;;;;0.50;0.00;;;;;15.05;62.59;102071.88;4973200;28;46427;-77
2022/10/06 02:02:07;;;;;;;;;1.50;1.00;;;;;15.00;62.38;102068.72;4973221;28;45593;-76
2022/10/06 02:04:33;;;;;;;;;1.75;1.00;;;;;14.94;62.65;102058.56;4973474;28;45477;-77
2022/10/06 02:06:58;;;;;;;;;2.50;1.00;;;;;14.99;62.45;102075.78;4973267;28;45748;-78
2022/10/06 02:12:50;;;;;;;;;2.00;0.00;;;;;15.00;62.63;102082.75;4972918;28;46107;-77
2022/10/06 02:15:16;;;;;;;;;0.75;0.00;;;;;14.98;62.46;102075.88;4973317;28;45698;-77
2022/10/06 02:17:41;;;;;;;;;2.75;1.00;;;;;14.97;62.52;102079.44;4971815;28;45878;-77
2022/10/06 02:20:07;;;;;;;;;1.25;0.50;;;;;14.99;62.51;102077.56;4973245;28;46227;-77
2022/10/06 02:22:36;;;;;;;;;5.00;1.00;;;;;14.98;62.62;102079.34;4972958;28;46193;-78
2022/10/06 02:25:02;;;;;;;;;0.00;0.00;;;;;14.94;62.39;102087.59;4973113;28;45527;-76
2022/10/06 02:27:28;;;;;;;;;1.00;1.00;;;;;14.89;63.13;102090.53;4972845;28;45560;-78
2022/10/06 02:29:54;;;;;;;;;1.75;0.25;;;;;14.87;62.52;102100.34;4972900;28;45529;-77
2022/10/06 02:32:20;;;;;;;;;1.00;0.50;;;;;14.85;62.89;102101.34;4973139;28;45567;-77
2022/10/06 02:34:45;;;;;;;;;2.75;1.00;;;;;14.78;63.15;102095.66;4972998;28;45719;-77
2022/10/06 02:37:11;;;;;;;;;2.00;1.25;;;;;14.71;62.97;102099.63;4973194;28;45630;-77
2022/10/06 02:42:58;;;;;;;;;2.50;0.50;;;;;14.66;63.28;102102.56;4972673;28;45686;-76
2022/10/06 02:45:24;;;;;;;;;0.00;0.00;;;;;14.68;63.46;102110.41;4972958;28;45573;-76
2022/10/06 02:47:50;;;;;;;;;1.00;1.00;;;;;14.65;63.26;102105.28;4972863;28;45475;-77
2022/10/06 02:50:16;;;;;;;;;3.00;1.00;;;;;14.67;63.25;102108.69;4972673;28;45712;-77
2022/10/06 02:52:41;;;;;;;;;1.50;0.25;;;;;14.63;63.49;102110.66;4971754;28;45887;-77
2022/10/06 02:55:08;;;;;;;;;2.75;1.00;;;;;14.63;63.21;102115.94;4972837;28;45582;-77
2022/10/06 02:57:33;;;;;;;;;1.00;0.00;;;;;14.58;63.04;102110.13;4970978;28;45495;-78
2022/10/06 02:59:59;;;;;;;;;3.00;0.75;;;;;14.60;63.14;102120.56;4971141;28;48135;-78
2022/10/06 03:02:24;;;;;;;;;2.25;0.75;;;;;14.59;63.10;102118.88;4972810;28;45641;-78
2022/10/06 03:04:50;;;;;;;;;0.00;0.00;;;;;14.55;63.47;102125.28;4972734;28;45585;-78
2022/10/06 03:07:15;;;;;;;;;0.00;0.00;;;;;14.49;63.00;102125.69;4972458;28;45707;-78
2022/10/06 03:13:02;;;;;;;;;1.00;0.00;;;;;14.44;63.42;102128.63;4971382;28;45576;-78
2022/10/06 03:15:28;;;;;;;;;3.25;1.25;;;;;14.44;63.44;102131.25;4971618;28;46138;-78
2022/10/06 03:17:53;;;;;;;;;3.00;1.00;;;;;14.43;63.41;102136.63;4969956;28;45685;-78
2022/10/06 03:20:19;;;;;;;;;1.50;1.00;;;;;14.42;63.22;102132.28;4971824;28;46482;-77
2022/10/06 03:22:44;;;;;;;;;1.00;1.00;;;;;14.40;63.58;102142.94;4971631;28;45990;-78
2022/10/06 03:28:31;;;;;;;;;3.50;0.50;;;;;14.38;63.30;102138.69;4971321;28;45759;-78
2022/10/06 03:31:05;;;;;;;;;1.00;0.25;;;;;14.35;63.16;102139.72;4971425;28;45756;-78
2022/10/06 03:33:32;;;;;;;;;0.75;0.00;;;;;14.33;63.49;102140.72;4971605;28;46598;-77
2022/10/06 03:36:10;;;;;;;;;1.50;0.00;;;;;14.33;63.78;102146.00;4971165;28;45806;-77
2022/10/06 03:38:36;;;;;;;;;1.00;0.25;;;;;14.28;63.11;102144.50;4971215;28;45783;-77
2022/10/06 03:41:13;;;;;;;;;1.00;0.75;;;;;14.27;63.51;102156.00;4971266;28;45810;-77
2022/10/06 03:43:41;;;;;;;;;1.25;1.00;;;;;14.28;63.15;102165.59;4971464;28;45824;-76
2022/10/06 03:46:08;;;;;;;;;2.25;0.75;;;;;14.26;63.52;102167.47;4971116;28;45479;-77
2022/10/06 03:48:34;;;;;;;;;2.00;1.00;;;;;14.25;63.16;102170.22;4971088;28;45586;-77
2022/10/06 03:51:11;;;;;;;;;2.00;0.75;;;;;14.20;63.58;102173.13;4971242;28;46273;-76
2022/10/06 03:53:36;;;;;;;;;0.75;0.75;;;;;14.20;63.14;102183.66;4969637;28;47090;-78
2022/10/06 03:56:05;;;;;;;;;2.00;1.50;;;;;14.23;63.00;102193.19;4970613;28;45845;-79
2022/10/06 03:58:33;;;;;;;;;1.00;1.00;;;;;14.20;63.32;102183.66;4971107;28;45507;-78
2022/10/06 04:01:13;;;;;;;;;0.25;0.00;;;;;14.18;63.33;102188.19;4970718;28;45921;-78
2022/10/06 04:03:39;;;;;;;;;4.00;1.00;;;;;14.15;63.33;102185.72;4972387;28;46001;-79
2022/10/06 04:06:06;;;;;;;;;2.00;0.00;;;;;14.17;63.10;102191.78;4973448;28;45624;-78
2022/10/06 04:08:34;;;;;;;;;4.00;2.75;;;;;14.19;63.05;102199.59;4973502;28;45846;-78
2022/10/06 04:11:10;;;;;;;;;2.75;0.50;;;;;14.19;62.87;102200.44;4973392;28;45906;-79
2022/10/06 04:13:37;;;;;;;;;1.75;0.25;;;;;14.16;63.20;102205.88;4973957;28;45691;-78
2022/10/06 04:16:10;;;;;;;;;1.50;1.00;;;;;14.15;62.79;102204.19;4973510;28;45551;-77
2022/10/06 04:18:37;;;;;;;;;1.50;1.00;;;;;14.16;62.76;102213.78;4973749;28;45782;-78
2022/10/06 04:21:02;;;;;;;;;3.25;0.00;;;;;14.16;62.73;102215.59;4973572;28;45604;-77
2022/10/06 04:23:28;;;;;;;;;0.25;0.25;;;;;14.12;62.86;102208.81;4973840;28;46219;-78
2022/10/06 04:29:15;;;;;;;;;3.00;0.00;;;;;14.11;62.77;102215.88;4973241;28;45694;-78
2022/10/06 04:31:41;;;;;;;;;3.50;1.25;;;;;14.11;63.01;102222.91;4973524;28;48276;-78
2022/10/06 04:34:09;;;;;;;;;1.75;0.00;;;;;14.09;62.92;102212.47;4973736;28;46005;-78
2022/10/06 04:36:38;;;;;;;;;2.00;1.25;;;;;14.08;62.90;102223.97;4973720;28;45510;-78
2022/10/06 04:39:04;;;;;;;;;1.50;1.00;;;;;14.10;62.83;102229.13;4973505;28;45609;-78
2022/10/06 04:41:35;;;;;;;;;1.50;0.75;;;;;14.11;63.00;102231.69;4973450;28;46656;-77
2022/10/06 04:44:01;;;;;;;;;1.75;1.75;;;;;14.12;63.27;102222.00;4973630;28;45972;-77
2022/10/06 04:46:29;;;;;;;;;4.00;2.00;;;;;14.13;63.32;102229.81;4973418;28;45765;-78
2022/10/06 04:48:54;;;;;;;;;2.00;1.00;;;;;14.16;63.36;102240.16;4971868;28;45672;-78
2022/10/06 04:51:22;;;;;;;;;3.00;1.00;;;;;14.16;62.95;102231.41;4973315;28;45660;-78
2022/10/06 04:53:48;;;;;;;;;3.50;1.50;;;;;14.14;62.78;102231.47;4972027;28;47144;-77
2022/10/06 04:56:23;;;;;;;;;1.00;0.50;;;;;14.18;62.84;102238.28;4973031;28;45648;-78
2022/10/06 04:58:51;;;;;;;;;5.50;1.25;;;;;14.14;62.73;102230.66;4973426;28;45553;-78
2022/10/06 05:01:25;;;;;;;;;4.00;1.00;;;;;14.19;63.00;102239.13;4972818;28;45518;-79
2022/10/06 05:03:53;;;;;;;;;2.25;0.75;;;;;14.19;62.96;102245.25;4973456;28;45501;-79
2022/10/06 05:06:23;;;;;;;;;2.75;1.25;;;;;14.16;63.29;102240.16;4973280;28;45791;-78
2022/10/06 05:15:00;;;;;;;;;3.25;1.50;;;;;14.08;63.07;102234.50;4972197;28;45969;-78
2022/10/06 05:17:26;;;;;;;;;8.50;4.50;;;;;14.06;63.30;102243.44;4973006;28;45483;-76
2022/10/06 05:19:52;;;;;;;;;3.50;2.00;;;;;14.02;63.58;102239.28;4972944;28;45803;-78
2022/10/06 05:22:17;;;;;;;;;2.25;1.50;;;;;13.96;63.11;102245.78;4971508;28;48577;-76
2022/10/06 05:24:43;;;;;;;;;1.75;1.00;;;;;13.94;63.46;102246.78;4987387;28;46341;-78
2022/10/06 05:27:08;;;;;;;;;4.00;1.00;;;;;13.92;63.28;102254.81;4973142;28;46165;-79
2022/10/06 05:29:33;;;;;;;;;3.00;1.50;;;;;13.86;63.25;102249.88;4972893;28;45947;-79
2022/10/06 05:31:59;;;;;;;;;3.50;3.00;;;;;13.86;63.61;102255.16;4972897;28;45709;-76
2022/10/06 05:34:24;;;;;;;;;2.75;1.75;;;;;13.85;63.63;102256.09;4972808;28;45774;-77
2022/10/06 05:36:49;;;;;;;;;4.00;1.75;;;;;13.79;63.50;102257.28;4972729;28;45626;-77
2022/10/06 05:39:15;;;;;;;;;2.00;2.00;;;;;13.82;63.18;102267.63;4986939;28;45855;-77
2022/10/06 05:41:40;;;;;;;;;7.00;3.00;;;;;13.82;63.54;102269.41;4972446;28;45654;-77
2022/10/06 05:44:06;;;;;;;;;1.50;1.00;;;;;13.81;63.76;102276.50;4971240;28;47520;-76
2022/10/06 05:46:32;;;;;;;;;2.50;1.00;;;;;13.83;63.52;102271.13;4972549;28;46066;-76
2022/10/06 05:49:00;;;;;;;;;4.75;1.75;;;;;13.83;63.61;102277.25;4975451;28;45724;-75
2022/10/06 05:51:30;;;;;;;;;2.50;1.00;;;;;13.85;63.54;102282.44;4971040;28;47091;-77
2022/10/06 05:53:56;;;;;;;;;7.00;1.25;;;;;13.84;63.73;102276.31;4971193;28;47253;-76
2022/10/06 06:00:23;;;;;;;;;1.25;1.00;;;;;13.83;63.60;102279.03;4967050;28;46337;-73
2022/10/06 06:02:48;;;;;;;;;3.00;1.50;;;;;13.84;64.14;102286.84;4971087;28;46376;-76
2022/10/06 06:05:13;;;;;;;;;1.50;1.00;;;;;13.84;63.82;102288.63;4970921;28;45788;-76
2022/10/06 06:07:39;;;;;;;;;2.75;1.00;;;;;13.86;63.47;102292.91;4971479;28;45761;-76
2022/10/06 06:10:04;;;;;;;;;3.00;1.25;;;;;13.88;64.00;102290.16;4971029;28;45609;-76
2022/10/06 06:12:33;;;;;;;;;3.75;2.00;;;;;13.90;63.77;102288.28;4971421;28;47631;-79
2022/10/06 06:17:42;;;;;;;;;3.50;1.25;;;;;13.91;63.60;102292.63;4972313;28;45775;-77
2022/10/06 06:20:08;;;;;;;;;3.75;1.75;;;;;13.90;63.41;102288.28;4971719;28;45960;-77
2022/10/06 06:22:34;;;;;;;;;1.50;1.00;;;;;13.90;63.48;102295.34;4971477;28;47649;-76
2022/10/06 06:25:00;;;;;;;;;2.75;1.00;;;;;13.89;63.38;102297.13;4969432;28;47312;-76
2022/10/06 06:27:25;;;;;;;;;1.25;0.00;;;;;13.89;63.26;102299.75;4970392;28;45508;-74
2022/10/06 06:29:50;;;;;;;;;4.00;2.00;;;;;13.88;63.12;102305.97;4972711;28;45698;-77
2022/10/06 06:32:16;;;;;;;;;4.25;3.00;;;;;13.88;63.51;102306.81;4971791;28;46354;-77
2022/10/06 06:34:41;;;;;;;;;3.00;1.00;;;;;13.87;63.30;102310.38;4971569;28;45732;-75
2022/10/06 06:37:08;;;;;;;;;1.25;1.00;;;;;13.87;63.17;102322.72;4972038;28;45710;-76
2022/10/06 06:39:33;;;;;;;;;4.00;2.00;;;;;13.86;63.40;102315.75;4972056;28;46012;-74
2022/10/06 06:45:20;;;;;;;;;3.00;2.00;;;;;13.88;63.58;102327.88;4971787;28;45721;-79
2022/10/06 06:47:47;;;;;;;;;3.50;2.00;;;;;13.87;63.30;102325.38;4971953;28;45488;-74
2022/10/06 06:50:12;;;;;;;;;3.00;2.00;;;;;13.85;63.33;102329.84;4971879;28;45719;-76
2022/10/06 06:52:38;;;;;;;;;4.50;2.00;;;;;13.84;63.68;102336.06;4970361;28;47424;-76
2022/10/06 06:55:04;;;;;;;;;2.50;1.00;;;;;13.82;63.74;102333.50;4971337;28;46390;-78
2022/10/06 06:57:29;;;;;;;;;3.75;1.00;;;;;13.79;63.92;102341.59;4972136;28;45704;-78
2022/10/06 06:59:55;;;;;;;;;2.50;0.50;;;;;13.77;63.63;102342.59;4971831;28;45700;-75
2022/10/06 07:02:28;;;;;;;;;1.75;1.00;;;;;13.76;63.47;102344.41;4971811;28;46309;-78
2022/10/06 07:04:53;;;;;;;;;4.00;1.00;;;;;13.76;63.47;102348.84;4971163;28;46305;-77
2022/10/06 07:07:19;;;;;;;;;3.75;1.00;;;;;13.76;63.66;102351.47;4971895;28;45749;-75
2022/10/06 07:09:45;;;;;;;;;2.50;2.50;;;;;13.77;64.12;102356.63;4972175;28;45579;-79
2022/10/06 07:26:31;;;;;;;;;1.75;1.50;;;;;13.84;63.63;102376.44;4971301;28;45506;-76
2022/10/06 07:29:00;;;;;;;;;3.00;2.00;;;;;13.88;63.50;102375.31;4971672;28;45499;-77
2022/10/06 07:31:30;;;;;;;;;1.25;1.00;;;;;13.90;63.49;102380.50;4971293;28;45954;-75
2022/10/06 07:33:55;;;;;;;;;1.00;1.00;;;;;13.95;63.60;102385.50;4971289;28;46295;-74
2022/10/06 07:36:21;;;;;;;;;4.50;3.00;;;;;13.98;63.78;102383.53;4971189;28;46186;-78
2022/10/06 07:38:47;;;;;;;;;4.50;3.00;;;;;13.99;63.27;102390.50;4970784;28;45740;-79
2022/10/06 07:41:13;;;;;;;;;1.75;0.75;;;;;14.03;63.19;102399.13;4971116;28;45946;-74
2022/10/06 07:43:38;;;;;;;;;4.00;2.50;;;;;14.04;63.55;102385.81;4971067;28;47112;-78
2022/10/06 07:46:11;;;;;;;;;4.50;2.00;;;;;14.08;63.67;102399.72;4970799;28;47449;-77
2022/10/06 07:48:39;;;;;;;;;3.00;2.00;;;;;14.11;63.54;102397.72;4970875;28;45707;-76
2022/10/06 07:51:12;;;;;;;;;4.50;2.00;;;;;14.17;63.20;102402.66;4971011;28;45633;-77
2022/10/06 07:53:37;;;;;;;;;2.75;2.00;;;;;14.20;63.28;102404.25;4971459;28;46312;-75
2022/10/06 07:56:05;;;;;;;;;2.50;1.50;;;;;14.24;62.81;102397.88;4969509;28;46305;-74
2022/10/06 07:58:32;;;;;;;;;2.00;1.00;;;;;14.26;63.24;102396.84;4970925;28;45699;-77
2022/10/06 08:01:08;;;;;;;;;4.50;2.00;;;;;14.30;62.81;102405.44;4969554;28;45624;-76
2022/10/06 08:03:35;;;;;;;;;3.25;2.00;;;;;14.30;63.24;102414.19;4971058;28;45614;-74
2022/10/06 08:06:01;;;;;;;;;7.25;4.00;;;;;14.36;63.07;102414.78;4970628;28;45667;-74
2022/10/06 08:08:31;;;;;;;;;2.00;1.00;;;;;14.40;63.02;102413.69;4970700;28;45715;-73
2022/10/06 08:10:59;;;;;;;;;3.00;2.00;;;;;14.43;62.96;102413.50;4970995;28;45559;-74
2022/10/06 08:13:25;;;;;;;;;2.75;2.00;;;;;14.49;62.53;102419.28;4969507;28;46908;-74
2022/10/06 08:15:53;;;;;;;;;2.00;1.00;;;;;14.53;62.97;102418.16;4970869;28;46573;-75
2022/10/06 08:18:19;;;;;;;;;2.50;2.00;;;;;14.57;62.45;102424.97;4970993;28;45746;-75
2022/10/06 08:20:45;;;;;;;;;2.75;1.25;;;;;14.63;62.43;102426.38;4970855;28;45668;-74
2022/10/06 08:23:11;;;;;;;;;2.50;1.75;;;;;14.65;62.25;102425.34;4970705;28;46500;-75
2022/10/06 08:25:42;;;;;;;;;4.00;1.50;;;;;14.69;62.21;102426.88;4970820;28;46253;-76
2022/10/06 08:28:11;;;;;;;;;5.00;1.75;;;;;14.74;62.32;102431.88;4970560;28;45707;-76
2022/10/06 08:30:37;;;;;;;;;6.00;4.00;;;;;14.78;62.03;102427.28;4969432;28;45554;-74
2022/10/06 08:33:04;;;;;;;;;2.50;1.25;;;;;14.83;62.13;102436.63;4970766;28;46693;-75
2022/10/06 08:35:30;;;;;;;;;2.25;1.75;;;;;14.88;61.68;102439.81;4970202;28;46474;-74
2022/10/06 08:37:56;;;;;;;;;4.00;2.00;;;;;14.94;61.52;102450.03;4970180;28;45743;-75
2022/10/06 08:40:22;;;;;;;;;2.50;1.50;;;;;14.98;61.53;102448.88;4970560;28;45578;-73
2022/10/06 08:46:13;;;;;;;;;2.50;1.50;;;;;15.08;61.45;102446.53;4970212;28;45799;-75
2022/10/06 08:48:39;;;;;;;;;2.00;0.75;;;;;15.13;61.59;102447.97;4970045;28;45886;-76
2022/10/06 08:51:31;;;;;;;;;8.50;2.00;;;;;15.17;61.07;102445.16;4971865;28;46032;-73
2022/10/06 08:54:11;;;;;;;;;1.75;1.75;;;;;15.21;60.94;102455.44;4973109;28;46855;-75
2022/10/06 08:56:55;;;;;;;;;2.00;1.00;;;;;15.26;61.17;102455.13;4973198;28;46388;-74
2022/10/06 08:59:21;;;;;;;;;2.50;0.75;;;;;15.31;61.00;102461.00;4973181;28;45755;-75
2022/10/06 09:01:50;;;;;;;;;1.00;0.50;;;;;15.35;60.59;102459.84;4973204;28;45864;-74
2022/10/06 09:04:24;;;;;;;;;2.25;1.00;;;;;15.40;60.66;102463.06;4972950;28;47389;-75
2022/10/06 09:07:05;;;;;;;;;2.75;1.00;;;;;15.44;60.53;102468.03;4972979;28;47523;-77
2022/10/06 09:09:56;;;;;;;;;2.50;1.00;;;;;15.48;60.58;102466.94;4972997;28;45703;-74
2022/10/06 09:12:33;;;;;;;;;2.25;1.00;;;;;15.53;60.60;102464.03;4972986;28;45503;-74
2022/10/06 09:15:29;;;;;;;;;0.25;0.00;;;;;15.58;60.39;102461.97;4971577;28;46519;-74
2022/10/06 09:18:18;;;;;;;;;3.50;0.75;;;;;15.63;60.09;102469.59;4931810;28;46161;-74
2022/10/06 09:21:09;;;;;;;;;4.25;2.00;;;;;15.67;60.26;102471.09;4931952;28;45709;-75
2022/10/06 09:23:48;;;;;;;;;3.00;1.00;;;;;15.71;60.20;102465.50;4915941;28;45785;-76
2022/10/06 09:29:35;;;;;;;;;2.50;1.00;;;;;15.80;59.99;102470.25;4931615;28;46102;-73
2022/10/06 09:32:01;;;;;;;;;3.50;1.00;;;;;15.84;59.73;102473.53;4931843;28;45902;-73
2022/10/06 09:34:38;;;;;;;;;3.50;1.25;;;;;15.87;59.81;102468.06;4931849;28;45890;-73
2022/10/06 09:37:08;;;;;;;;;8.75;5.75;;;;;15.91;59.70;102472.19;4931700;28;46963;-73
2022/10/06 09:39:36;;;;;;;;;4.00;3.00;;;;;15.95;59.68;102469.25;4931522;28;47194;-73
2022/10/06 09:45:24;;;;;;;;;7.00;4.50;;;;;16.08;59.36;102465.84;4931870;28;45710;-76
2022/10/06 09:47:53;;;;;;;;;2.50;2.50;;;;;16.12;59.13;102462.03;4930781;28;46947;-75
2022/10/06 09:50:26;;;;;;;;;2.25;1.00;;;;;16.16;59.17;102463.53;4915047;28;47018;-74
2022/10/06 09:53:02;;;;;;;;;2.50;1.00;;;;;16.18;59.04;102470.44;4931334;28;45850;-77
2022/10/06 09:55:50;;;;;;;;;1.00;1.00;;;;;16.23;59.12;102463.03;4963030;28;45555;-78
2022/10/06 10:01:38;;;;;;;;;1.00;1.00;;;;;16.30;58.44;102469.59;4965073;28;45923;-79
2022/10/06 10:04:11;;;;;;;;;1.00;1.00;;;;;16.35;58.41;102467.53;4972476;28;45786;-77
2022/10/06 10:06:37;;;;;;;;;1.00;0.50;;;;;16.38;58.04;102462.03;4972517;28;45545;-77
2022/10/06 10:09:20;;;;;;;;;3.00;1.25;;;;;16.43;58.23;102463.53;4972199;28;46069;-80
2022/10/06 10:12:23;;;;;;;;;1.25;0.75;;;;;16.47;57.94;102463.22;4972104;28;47046;-78
2022/10/06 10:14:49;;;;;;;;;1.50;1.00;;;;;16.51;57.94;102462.09;4972388;28;45765;-79
2022/10/06 10:17:20;;;;;;;;;1.75;0.00;;;;;16.55;58.27;102465.38;4973015;28;45641;-77
2022/10/06 10:19:54;;;;;;;;;1.75;0.25;;;;;16.59;57.26;102464.22;4972095;28;47195;-78
2022/10/06 10:22:43;;;;;;;;;1.00;1.00;;;;;16.65;57.26;102474.41;4971875;28;47687;-78
2022/10/06 10:25:50;;;;;;;;;2.50;1.00;;;;;16.70;57.36;102461.72;4972862;28;45792;-80
2022/10/06 10:28:30;;;;;;;;;0.75;0.50;;;;;16.75;57.08;102462.25;4930874;28;45878;-79
2022/10/06 10:31:13;;;;;;;;;2.75;1.25;;;;;16.77;56.81;102461.22;4930822;28;46675;-76
2022/10/06 10:33:56;;;;;;;;;3.00;1.00;;;;;16.85;56.83;102451.88;4914991;28;47500;-77
2022/10/06 10:36:30;;;;;;;;;2.50;1.00;;;;;16.86;56.90;102450.94;4932040;28;45769;-77
2022/10/06 10:38:57;;;;;;;;;1.50;0.50;;;;;16.90;56.56;102455.06;4932152;28;45755;-77
2022/10/06 10:41:37;;;;;;;;;1.00;1.00;;;;;16.92;56.48;102451.38;4931631;28;47457;-80
2022/10/06 10:44:09;;;;;;;;;1.25;1.00;;;;;16.94;56.66;102444.19;4932067;28;46013;-75
2022/10/06 10:46:48;;;;;;;;;2.25;2.00;;;;;17.03;56.32;102448.00;4931831;28;45671;-79
2022/10/06 10:49:30;;;;;;;;;2.00;1.00;;;;;17.10;55.84;102451.94;4931782;28;45785;-75
2022/10/06 10:52:10;;;;;;;;;4.75;1.50;;;;;17.15;55.89;102447.16;4931519;28;47626;-77
2022/10/06 10:54:45;;;;;;;;;2.00;1.75;;;;;17.20;55.65;102450.31;4931972;28;45939;-78
2022/10/06 10:57:15;;;;;;;;;1.75;1.00;;;;;17.27;55.86;102442.81;4931872;28;45631;-74
2022/10/06 11:00:02;;;;;;;;;3.75;1.50;;;;;17.32;55.61;102443.34;4932191;28;45913;-79
2022/10/06 11:02:29;;;;;;;;;2.75;1.00;;;;;17.39;55.38;102445.44;4931482;28;47550;-75
2022/10/06 11:05:11;;;;;;;;;1.00;0.25;;;;;17.45;55.47;102444.16;4945786;28;45664;-75
2022/10/06 11:07:53;;;;;;;;;2.00;1.00;;;;;17.53;54.37;102440.00;4972372;28;45460;-78
2022/10/06 11:10:24;;;;;;;;;2.00;1.00;;;;;17.60;54.52;102435.97;4972758;28;45756;-78
2022/10/06 11:13:02;;;;;;;;;2.00;1.50;;;;;17.67;54.27;102435.56;4971642;28;45620;-77
2022/10/06 11:16:03;;;;;;;;;3.75;2.00;;;;;17.70;54.13;102433.53;4972469;28;45967;-76
2022/10/06 11:18:44;;;;;;;;;2.00;1.00;;;;;17.73;53.55;102430.66;4931270;28;45966;-77
2022/10/06 11:21:20;;;;;;;;;3.00;1.75;;;;;17.76;53.03;102440.22;4931597;28;45576;-77
2022/10/06 11:24:13;;;;;;;;;1.25;1.00;;;;;17.78;52.66;102435.63;4931428;28;46970;-77
2022/10/06 11:30:12;;;;;;;;;2.50;1.00;;;;;17.80;52.45;102444.34;4931483;28;45778;-75
2022/10/06 11:32:52;;;;;;;;;2.00;2.00;;;;;17.83;52.59;102434.34;4931376;28;45812;-77
2022/10/06 11:35:21;;;;;;;;;3.00;2.00;;;;;17.88;52.10;102436.66;4931147;28;46787;-75
2022/10/06 11:37:59;;;;;;;;;6.00;2.00;;;;;17.89;51.92;102433.91;4931071;28;47377;-76
2022/10/06 11:40:33;;;;;;;;;1.00;1.00;;;;;17.90;51.63;102430.28;4931051;28;45683;-75
2022/10/06 11:46:26;;;;;;;;;2.25;1.00;;;;;18.00;51.80;102426.00;4930879;28;45664;-75
2022/10/06 11:48:52;;;;;;;;;3.50;1.50;;;;;18.02;51.42;102429.41;4914915;28;45740;-75
2022/10/06 11:51:23;;;;;;;;;1.00;1.00;;;;;18.06;51.29;102416.75;4931253;28;45669;-75
2022/10/06 11:53:50;;;;;;;;;2.00;1.00;;;;;18.11;51.55;102425.22;4933181;28;45522;-75
2022/10/06 11:56:15;;;;;;;;;0.00;0.00;;;;;18.15;50.89;102415.22;4972161;28;45662;-78
2022/10/06 12:02:03;;;;;;;;;1.00;0.50;;;;;18.23;50.78;102412.84;4963629;28;45842;-75
2022/10/06 12:04:29;;;;;;;;;1.25;0.25;;;;;18.26;50.91;102408.16;4971715;28;45795;-78
2022/10/06 12:06:56;;;;;;;;;2.00;1.00;;;;;18.29;51.18;102399.97;4971371;28;46649;-75
2022/10/06 12:09:29;;;;;;;;;1.25;0.25;;;;;18.32;51.10;102398.88;4971690;28;45673;-76
2022/10/06 12:12:02;;;;;;;;;1.50;1.00;;;;;18.34;50.75;102392.53;4971372;28;45702;-75
2022/10/06 12:14:53;;;;;;;;;1.25;0.75;;;;;18.36;50.21;102382.63;4971625;28;45517;-75
2022/10/06 12:17:32;;;;;;;;;1.50;1.00;;;;;18.35;49.72;102391.53;4971251;28;47376;-74
2022/10/06 12:20:19;;;;;;;;;2.00;0.00;;;;;18.34;49.73;102386.38;4971297;28;47323;-74
2022/10/06 12:22:45;;;;;;;;;3.00;2.25;;;;;18.32;49.95;102394.44;4971392;28;45663;-75
2022/10/06 12:25:10;;;;;;;;;4.50;2.00;;;;;18.33;49.11;102387.31;4973238;28;45519;-74
2022/10/06 12:28:13;;;;;;;;;2.00;1.00;;;;;18.35;49.76;102385.41;4973951;28;47389;-78
2022/10/06 12:30:50;;;;;;;;;2.00;1.00;;;;;18.38;49.64;102385.16;4973978;28;45915;-78
2022/10/06 12:33:18;;;;;;;;;2.50;1.00;;;;;18.41;48.97;102382.25;4974313;28;45431;-74
2022/10/06 12:35:44;;;;;;;;;2.00;1.00;;;;;18.43;48.36;102373.22;4974498;28;45722;-75
2022/10/06 12:38:40;;;;;;;;;2.25;1.25;;;;;18.49;48.56;102373.72;4974217;28;47456;-75
2022/10/06 12:41:12;;;;;;;;;1.25;0.75;;;;;18.55;48.41;102373.28;4972656;28;47108;-75
2022/10/06 12:43:55;;;;;;;;;1.75;1.00;;;;;18.60;48.45;102368.47;4974036;28;45734;-73
2022/10/06 12:46:41;;;;;;;;;2.50;1.00;;;;;18.67;48.43;102364.41;4974007;28;45448;-73
2022/10/06 12:49:25;;;;;;;;;2.00;1.00;;;;;18.72;48.31;102365.72;4974067;28;45525;-76
2022/10/06 12:51:52;;;;;;;;;4.00;2.00;;;;;18.78;48.38;102362.59;4973857;28;47526;-79
2022/10/06 12:54:29;;;;;;;;;2.00;1.00;;;;;18.84;48.27;102350.63;4974077;28;45653;-77
2022/10/06 12:56:57;;;;;;;;;1.75;1.00;;;;;18.90;47.77;102354.63;4972722;28;45725;-79